aviador You're here:

KALN Decoded Metar

ALTON/ST LOUIS R in IL, USA
Report Time2018-07-16 08:10:00
UTC Time2018-07-16 08:33:33
Flight Rules lifr LIFR
WindCalm
Visibility1207 m
Phenomena:Mist
Clouds:Overcast 005 Hf
Ceiling500 ft
Temp22°C (ISA +8)
Dew Point22°C (100% RH)
QNH1015 hPa
Density Alt1,768 ft
Elevation545 ft
Report Wrong Elevation
Raw Report
KALN 160810Z AUTO 00000KT 3/4SM BR OVC005 22/22 A2996 RMK AO2
T02170217=

Extra information for KALN:More info

Metar Taf Metar & Taf Last 4 Metars F.Rules Stats Wind Profile Meteogram Temp Stats Airport Information Weather charts Add Link Nearby VenuesMetar ALERT Operation Metar Decoded Social comments

AIRNAV info for KALN